sensor_id;sensor_type;location;lat;lon;timestamp;temperature;humidity
43627;DHT22;29217;52.586;13.442;2023-04-12T00:00:16;4.40;99.90
43627;DHT22;29217;52.586;13.442;2023-04-12T00:02:42;4.40;99.90
43627;DHT22;29217;52.586;13.442;2023-04-12T00:05:09;4.40;99.90
43627;DHT22;29217;52.586;13.442;2023-04-12T00:07:36;4.50;99.90
43627;DHT22;29217;52.586;13.442;2023-04-12T00:10:06;4.40;99.90
43627;DHT22;29217;52.586;13.442;2023-04-12T00:12:32;4.30;99.90
43627;DHT22;29217;52.586;13.442;2023-04-12T00:14:58;4.20;99.90
43627;DHT22;29217;52.586;13.442;2023-04-12T00:17:23;4.20;99.90
43627;DHT22;29217;52.586;13.442;2023-04-12T00:19:49;4.00;99.90
43627;DHT22;29217;52.586;13.442;2023-04-12T00:22:15;3.90;99.90
43627;DHT22;29217;52.586;13.442;2023-04-12T00:24:41;3.70;99.90
43627;DHT22;29217;52.586;13.442;2023-04-12T00:27:07;3.60;99.90
43627;DHT22;29217;52.586;13.442;2023-04-12T00:29:33;3.50;99.90
43627;DHT22;29217;52.586;13.442;2023-04-12T00:31:59;3.30;99.90
43627;DHT22;29217;52.586;13.442;2023-04-12T00:34:29;3.10;99.90
43627;DHT22;29217;52.586;13.442;2023-04-12T00:36:54;3.20;99.90
43627;DHT22;29217;52.586;13.442;2023-04-12T00:39:20;3.30;99.90
43627;DHT22;29217;52.586;13.442;2023-04-12T00:41:47;3.30;99.90
43627;DHT22;29217;52.586;13.442;2023-04-12T00:44:12;3.20;99.90
43627;DHT22;29217;52.586;13.442;2023-04-12T00:46:38;3.10;99.90
43627;DHT22;29217;52.586;13.442;2023-04-12T00:49:04;3.10;99.90
43627;DHT22;29217;52.586;13.442;2023-04-12T00:51:31;3.10;99.90
43627;DHT22;29217;52.586;13.442;2023-04-12T00:53:58;3.10;99.90
43627;DHT22;29217;52.586;13.442;2023-04-12T00:56:26;3.10;99.90
43627;DHT22;29217;52.586;13.442;2023-04-12T00:58:55;3.00;99.90
43627;DHT22;29217;52.586;13.442;2023-04-12T01:01:21;3.00;99.90
43627;DHT22;29217;52.586;13.442;2023-04-12T01:03:48;2.90;99.90
43627;DHT22;29217;52.586;13.442;2023-04-12T01:06:28;2.90;99.90
43627;DHT22;29217;52.586;13.442;2023-04-12T01:11:44;2.80;99.90
43627;DHT22;29217;52.586;13.442;2023-04-12T01:16:59;2.60;99.90
43627;DHT22;29217;52.586;13.442;2023-04-12T01:24:45;2.50;99.90
43627;DHT22;29217;52.586;13.442;2023-04-12T01:27:27;2.30;99.90
43627;DHT22;29217;52.586;13.442;2023-04-12T01:30:00;2.30;99.90
43627;DHT22;29217;52.586;13.442;2023-04-12T01:32:28;2.30;99.90
43627;DHT22;29217;52.586;13.442;2023-04-12T01:34:55;2.30;99.90
43627;DHT22;29217;52.586;13.442;2023-04-12T01:37:22;2.20;99.90
43627;DHT22;29217;52.586;13.442;2023-04-12T01:39:49;2.20;99.90
43627;DHT22;29217;52.586;13.442;2023-04-12T01:42:18;2.30;99.90
43627;DHT22;29217;52.586;13.442;2023-04-12T01:44:45;2.30;99.90
43627;DHT22;29217;52.586;13.442;2023-04-12T01:47:10;2.20;99.90
43627;DHT22;29217;52.586;13.442;2023-04-12T01:49:48;2.20;99.90
43627;DHT22;29217;52.586;13.442;2023-04-12T01:52:19;2.00;99.90
43627;DHT22;29217;52.586;13.442;2023-04-12T01:54:48;2.00;99.90
43627;DHT22;29217;52.586;13.442;2023-04-12T01:57:17;2.00;99.90
43627;DHT22;29217;52.586;13.442;2023-04-12T01:59:44;1.80;99.90
43627;DHT22;29217;52.586;13.442;2023-04-12T02:02:12;1.90;99.90
43627;DHT22;29217;52.586;13.442;2023-04-12T02:04:38;1.90;99.90
43627;DHT22;29217;52.586;13.442;2023-04-12T02:07:05;1.90;99.90
43627;DHT22;29217;52.586;13.442;2023-04-12T02:09:36;1.90;99.90
43627;DHT22;29217;52.586;13.442;2023-04-12T02:12:02;1.90;99.90
43627;DHT22;29217;52.586;13.442;2023-04-12T02:14:28;1.90;99.90
43627;DHT22;29217;52.586;13.442;2023-04-12T02:16:56;1.80;99.90
43627;DHT22;29217;52.586;13.442;2023-04-12T02:19:22;1.90;99.90
43627;DHT22;29217;52.586;13.442;2023-04-12T02:21:49;1.90;99.90
43627;DHT22;29217;52.586;13.442;2023-04-12T02:24:15;1.80;99.90
43627;DHT22;29217;52.586;13.442;2023-04-12T02:26:40;1.80;99.90
43627;DHT22;29217;52.586;13.442;2023-04-12T02:29:08;1.80;99.90
43627;DHT22;29217;52.586;13.442;2023-04-12T02:31:34;1.80;99.90
43627;DHT22;29217;52.586;13.442;2023-04-12T02:34:01;1.70;99.90
43627;DHT22;29217;52.586;13.442;2023-04-12T02:36:27;1.50;99.90
43627;DHT22;29217;52.586;13.442;2023-04-12T02:38:54;1.40;99.90
43627;DHT22;29217;52.586;13.442;2023-04-12T02:41:21;1.30;99.90
43627;DHT22;29217;52.586;13.442;2023-04-12T02:43:47;1.40;99.90
43627;DHT22;29217;52.586;13.442;2023-04-12T02:46:18;1.40;99.90
43627;DHT22;29217;52.586;13.442;2023-04-12T02:48:46;1.60;99.90
43627;DHT22;29217;52.586;13.442;2023-04-12T02:51:12;1.60;99.90
43627;DHT22;29217;52.586;13.442;2023-04-12T02:53:37;1.60;99.90
43627;DHT22;29217;52.586;13.442;2023-04-12T02:56:04;1.50;99.90
43627;DHT22;29217;52.586;13.442;2023-04-12T02:58:30;1.50;99.90
43627;DHT22;29217;52.586;13.442;2023-04-12T03:00:55;1.50;99.90
43627;DHT22;29217;52.586;13.442;2023-04-12T03:03:24;1.50;99.90
43627;DHT22;29217;52.586;13.442;2023-04-12T03:05:51;1.40;99.90
43627;DHT22;29217;52.586;13.442;2023-04-12T03:08:17;1.40;99.90
43627;DHT22;29217;52.586;13.442;2023-04-12T03:10:43;1.40;99.90
43627;DHT22;29217;52.586;13.442;2023-04-12T03:13:09;1.40;99.90
43627;DHT22;29217;52.586;13.442;2023-04-12T03:15:35;1.40;99.90
43627;DHT22;29217;52.586;13.442;2023-04-12T03:18:01;1.40;99.90
43627;DHT22;29217;52.586;13.442;2023-04-12T03:20:26;1.40;99.90
43627;DHT22;29217;52.586;13.442;2023-04-12T03:22:52;1.40;99.90
43627;DHT22;29217;52.586;13.442;2023-04-12T03:25:18;1.30;99.90
43627;DHT22;29217;52.586;13.442;2023-04-12T03:27:44;1.30;99.90
43627;DHT22;29217;52.586;13.442;2023-04-12T03:30:10;1.30;99.90
43627;DHT22;29217;52.586;13.442;2023-04-12T03:32:40;1.20;99.90
43627;DHT22;29217;52.586;13.442;2023-04-12T03:35:09;1.00;99.90
43627;DHT22;29217;52.586;13.442;2023-04-12T03:37:35;1.00;99.90
43627;DHT22;29217;52.586;13.442;2023-04-12T03:40:01;0.90;99.90
43627;DHT22;29217;52.586;13.442;2023-04-12T03:42:27;1.00;99.90
43627;DHT22;29217;52.586;13.442;2023-04-12T03:44:53;1.10;99.90
43627;DHT22;29217;52.586;13.442;2023-04-12T03:47:19;1.20;99.90
43627;DHT22;29217;52.586;13.442;2023-04-12T03:49:46;1.20;99.90
43627;DHT22;29217;52.586;13.442;2023-04-12T03:52:12;1.20;99.90
43627;DHT22;29217;52.586;13.442;2023-04-12T03:54:39;1.30;99.90
43627;DHT22;29217;52.586;13.442;2023-04-12T03:57:05;1.20;99.90
43627;DHT22;29217;52.586;13.442;2023-04-12T03:59:31;1.20;99.90
43627;DHT22;29217;52.586;13.442;2023-04-12T04:02:00;1.20;99.90
43627;DHT22;29217;52.586;13.442;2023-04-12T04:04:26;1.10;99.90
43627;DHT22;29217;52.586;13.442;2023-04-12T04:06:52;1.10;99.90
43627;DHT22;29217;52.586;13.442;2023-04-12T04:09:18;1.00;99.90
43627;DHT22;29217;52.586;13.442;2023-04-12T04:11:44;1.00;99.90
43627;DHT22;29217;52.586;13.442;2023-04-12T04:14:10;1.00;99.90
43627;DHT22;29217;52.586;13.442;2023-04-12T04:16:35;1.00;99.90
43627;DHT22;29217;52.586;13.442;2023-04-12T04:19:01;1.00;99.90
43627;DHT22;29217;52.586;13.442;2023-04-12T04:21:26;0.90;99.90
43627;DHT22;29217;52.586;13.442;2023-04-12T04:23:55;0.70;99.90
43627;DHT22;29217;52.586;13.442;2023-04-12T04:26:23;0.70;99.90
43627;DHT22;29217;52.586;13.442;2023-04-12T04:28:56;0.70;99.90
43627;DHT22;29217;52.586;13.442;2023-04-12T04:31:27;0.80;99.90
43627;DHT22;29217;52.586;13.442;2023-04-12T04:34:01;0.90;99.90
43627;DHT22;29217;52.586;13.442;2023-04-12T04:36:28;0.90;99.90
43627;DHT22;29217;52.586;13.442;2023-04-12T04:38:55;1.00;99.90
43627;DHT22;29217;52.586;13.442;2023-04-12T04:41:22;1.00;99.90
43627;DHT22;29217;52.586;13.442;2023-04-12T04:43:49;1.00;99.90
43627;DHT22;29217;52.586;13.442;2023-04-12T04:46:15;1.00;99.90
43627;DHT22;29217;52.586;13.442;2023-04-12T04:48:41;1.10;99.90
43627;DHT22;29217;52.586;13.442;2023-04-12T04:51:07;1.00;99.90
43627;DHT22;29217;52.586;13.442;2023-04-12T04:53:33;0.90;99.90
43627;DHT22;29217;52.586;13.442;2023-04-12T04:55:59;0.90;99.90
43627;DHT22;29217;52.586;13.442;2023-04-12T04:58:25;1.00;99.90
43627;DHT22;29217;52.586;13.442;2023-04-12T05:00:51;1.10;99.90
43627;DHT22;29217;52.586;13.442;2023-04-12T05:03:21;1.20;99.90
43627;DHT22;29217;52.586;13.442;2023-04-12T05:05:48;1.30;99.90
43627;DHT22;29217;52.586;13.442;2023-04-12T05:08:14;1.40;99.90
43627;DHT22;29217;52.586;13.442;2023-04-12T05:10:41;1.40;99.90
43627;DHT22;29217;52.586;13.442;2023-04-12T05:13:07;1.30;99.90
43627;DHT22;29217;52.586;13.442;2023-04-12T05:15:34;1.30;99.90
43627;DHT22;29217;52.586;13.442;2023-04-12T05:18:00;1.40;99.90
43627;DHT22;29217;52.586;13.442;2023-04-12T05:20:26;1.50;99.90
43627;DHT22;29217;52.586;13.442;2023-04-12T05:22:51;1.70;99.90
43627;DHT22;29217;52.586;13.442;2023-04-12T05:25:17;1.80;99.90
43627;DHT22;29217;52.586;13.442;2023-04-12T05:27:44;2.00;99.90
43627;DHT22;29217;52.586;13.442;2023-04-12T05:30:10;2.10;99.90
43627;DHT22;29217;52.586;13.442;2023-04-12T05:32:35;2.10;99.90
43627;DHT22;29217;52.586;13.442;2023-04-12T05:35:01;2.30;99.90
43627;DHT22;29217;52.586;13.442;2023-04-12T05:37:27;2.40;99.90
43627;DHT22;29217;52.586;13.442;2023-04-12T05:39:52;2.40;99.90
43627;DHT22;29217;52.586;13.442;2023-04-12T05:42:18;2.50;99.90
43627;DHT22;29217;52.586;13.442;2023-04-12T05:44:44;2.60;99.90
43627;DHT22;29217;52.586;13.442;2023-04-12T05:47:09;2.80;99.90
43627;DHT22;29217;52.586;13.442;2023-04-12T05:49:35;2.90;99.90
43627;DHT22;29217;52.586;13.442;2023-04-12T05:52:02;3.00;99.90
43627;DHT22;29217;52.586;13.442;2023-04-12T05:54:27;3.40;99.90
43627;DHT22;29217;52.586;13.442;2023-04-12T05:56:53;3.60;99.90
43627;DHT22;29217;52.586;13.442;2023-04-12T05:59:19;3.70;99.90
43627;DHT22;29217;52.586;13.442;2023-04-12T06:01:45;4.10;99.90
43627;DHT22;29217;52.586;13.442;2023-04-12T06:04:11;4.30;99.90
43627;DHT22;29217;52.586;13.442;2023-04-12T06:06:37;4.60;99.90
43627;DHT22;29217;52.586;13.442;2023-04-12T06:09:02;4.80;99.90
43627;DHT22;29217;52.586;13.442;2023-04-12T06:11:29;4.90;99.90
43627;DHT22;29217;52.586;13.442;2023-04-12T06:13:59;5.10;99.90
43627;DHT22;29217;52.586;13.442;2023-04-12T06:16:25;5.30;99.90
43627;DHT22;29217;52.586;13.442;2023-04-12T06:18:50;5.40;99.90
43627;DHT22;29217;52.586;13.442;2023-04-12T06:21:17;5.50;99.90
43627;DHT22;29217;52.586;13.442;2023-04-12T06:23:42;5.50;99.90
43627;DHT22;29217;52.586;13.442;2023-04-12T06:26:08;5.60;99.90
43627;DHT22;29217;52.586;13.442;2023-04-12T06:28:34;5.90;99.90
43627;DHT22;29217;52.586;13.442;2023-04-12T06:31:00;5.90;99.90
43627;DHT22;29217;52.586;13.442;2023-04-12T06:33:25;6.10;99.90
43627;DHT22;29217;52.586;13.442;2023-04-12T06:35:51;6.20;99.90
43627;DHT22;29217;52.586;13.442;2023-04-12T06:38:17;6.40;99.90
43627;DHT22;29217;52.586;13.442;2023-04-12T06:40:43;6.50;99.90
43627;DHT22;29217;52.586;13.442;2023-04-12T06:43:09;6.60;99.90
43627;DHT22;29217;52.586;13.442;2023-04-12T06:45:34;6.70;99.90
43627;DHT22;29217;52.586;13.442;2023-04-12T06:48:00;6.90;99.90
43627;DHT22;29217;52.586;13.442;2023-04-12T06:50:25;6.90;99.90
43627;DHT22;29217;52.586;13.442;2023-04-12T06:52:51;7.20;99.90
43627;DHT22;29217;52.586;13.442;2023-04-12T06:55:17;7.40;99.90
43627;DHT22;29217;52.586;13.442;2023-04-12T06:57:43;7.60;99.90
43627;DHT22;29217;52.586;13.442;2023-04-12T07:00:09;7.70;99.90
43627;DHT22;29217;52.586;13.442;2023-04-12T07:02:35;7.90;99.90
43627;DHT22;29217;52.586;13.442;2023-04-12T07:05:01;8.00;99.90
43627;DHT22;29217;52.586;13.442;2023-04-12T07:07:26;8.00;99.90
43627;DHT22;29217;52.586;13.442;2023-04-12T07:09:52;8.10;99.90
43627;DHT22;29217;52.586;13.442;2023-04-12T07:12:18;8.10;99.90
43627;DHT22;29217;52.586;13.442;2023-04-12T07:14:43;8.30;99.90
43627;DHT22;29217;52.586;13.442;2023-04-12T07:17:09;8.60;99.90
43627;DHT22;29217;52.586;13.442;2023-04-12T07:19:35;8.80;99.90
43627;DHT22;29217;52.586;13.442;2023-04-12T07:22:01;9.00;99.90
43627;DHT22;29217;52.586;13.442;2023-04-12T07:24:27;9.20;99.90
43627;DHT22;29217;52.586;13.442;2023-04-12T07:26:53;9.20;99.90
43627;DHT22;29217;52.586;13.442;2023-04-12T07:29:19;9.40;99.90
43627;DHT22;29217;52.586;13.442;2023-04-12T07:31:45;9.30;99.90
43627;DHT22;29217;52.586;13.442;2023-04-12T07:34:11;9.50;99.90
43627;DHT22;29217;52.586;13.442;2023-04-12T07:36:37;9.60;99.90
43627;DHT22;29217;52.586;13.442;2023-04-12T07:39:02;9.70;99.90
43627;DHT22;29217;52.586;13.442;2023-04-12T07:41:28;9.70;99.90
43627;DHT22;29217;52.586;13.442;2023-04-12T07:43:53;9.70;99.90
43627;DHT22;29217;52.586;13.442;2023-04-12T07:46:19;9.70;99.90
43627;DHT22;29217;52.586;13.442;2023-04-12T07:48:45;9.70;99.90
43627;DHT22;29217;52.586;13.442;2023-04-12T07:51:11;9.70;99.90
43627;DHT22;29217;52.586;13.442;2023-04-12T07:53:37;9.70;99.90
43627;DHT22;29217;52.586;13.442;2023-04-12T07:56:03;9.60;99.90
43627;DHT22;29217;52.586;13.442;2023-04-12T07:58:32;9.60;99.90
43627;DHT22;29217;52.586;13.442;2023-04-12T08:00:58;9.60;99.90
43627;DHT22;29217;52.586;13.442;2023-04-12T08:03:23;9.60;99.90
43627;DHT22;29217;52.586;13.442;2023-04-12T08:05:50;9.70;99.90
43627;DHT22;29217;52.586;13.442;2023-04-12T08:08:18;9.90;99.90
43627;DHT22;29217;52.586;13.442;2023-04-12T08:10:46;10.20;99.90
43627;DHT22;29217;52.586;13.442;2023-04-12T08:13:12;10.30;99.90
43627;DHT22;29217;52.586;13.442;2023-04-12T08:15:37;10.30;99.90
43627;DHT22;29217;52.586;13.442;2023-04-12T08:18:03;10.30;99.90
43627;DHT22;29217;52.586;13.442;2023-04-12T08:20:29;10.50;99.90
43627;DHT22;29217;52.586;13.442;2023-04-12T08:22:54;10.60;99.90
43627;DHT22;29217;52.586;13.442;2023-04-12T08:25:20;10.70;99.90
43627;DHT22;29217;52.586;13.442;2023-04-12T08:27:48;10.80;99.90
43627;DHT22;29217;52.586;13.442;2023-04-12T08:30:14;10.90;99.90
43627;DHT22;29217;52.586;13.442;2023-04-12T08:32:40;10.90;99.90
43627;DHT22;29217;52.586;13.442;2023-04-12T08:35:06;10.90;99.90
43627;DHT22;29217;52.586;13.442;2023-04-12T08:37:32;10.90;99.90
43627;DHT22;29217;52.586;13.442;2023-04-12T08:40:01;10.90;99.90
43627;DHT22;29217;52.586;13.442;2023-04-12T08:42:28;11.00;99.90
43627;DHT22;29217;52.586;13.442;2023-04-12T08:44:55;11.00;99.90
43627;DHT22;29217;52.586;13.442;2023-04-12T08:47:21;11.00;99.90
43627;DHT22;29217;52.586;13.442;2023-04-12T08:49:46;11.00;99.90
43627;DHT22;29217;52.586;13.442;2023-04-12T08:52:12;10.90;99.90
43627;DHT22;29217;52.586;13.442;2023-04-12T08:54:38;11.00;99.90
43627;DHT22;29217;52.586;13.442;2023-04-12T08:57:05;11.10;99.90
43627;DHT22;29217;52.586;13.442;2023-04-12T08:59:32;11.20;99.90
43627;DHT22;29217;52.586;13.442;2023-04-12T09:02:00;11.20;99.90
43627;DHT22;29217;52.586;13.442;2023-04-12T09:04:26;11.20;99.90
43627;DHT22;29217;52.586;13.442;2023-04-12T09:06:51;11.20;99.90
43627;DHT22;29217;52.586;13.442;2023-04-12T09:09:17;11.20;99.90
43627;DHT22;29217;52.586;13.442;2023-04-12T09:11:43;11.30;99.90
43627;DHT22;29217;52.586;13.442;2023-04-12T09:14:24;11.30;99.90
43627;DHT22;29217;52.586;13.442;2023-04-12T09:16:50;11.40;99.90
43627;DHT22;29217;52.586;13.442;2023-04-12T09:19:32;11.50;99.90
43627;DHT22;29217;52.586;13.442;2023-04-12T09:21:59;11.40;99.90
43627;DHT22;29217;52.586;13.442;2023-04-12T09:24:24;11.50;99.90
43627;DHT22;29217;52.586;13.442;2023-04-12T09:27:06;11.50;99.90
43627;DHT22;29217;52.586;13.442;2023-04-12T09:29:32;11.60;99.90
43627;DHT22;29217;52.586;13.442;2023-04-12T09:32:06;11.80;99.90
43627;DHT22;29217;52.586;13.442;2023-04-12T09:34:33;11.90;99.90
43627;DHT22;29217;52.586;13.442;2023-04-12T09:37:12;11.90;99.90
43627;DHT22;29217;52.586;13.442;2023-04-12T09:39:40;11.90;99.90
43627;DHT22;29217;52.586;13.442;2023-04-12T09:42:07;12.10;99.90
43627;DHT22;29217;52.586;13.442;2023-04-12T09:44:33;12.20;99.90
43627;DHT22;29217;52.586;13.442;2023-04-12T09:46:59;12.40;99.90
43627;DHT22;29217;52.586;13.442;2023-04-12T09:49:43;12.50;99.90
43627;DHT22;29217;52.586;13.442;2023-04-12T09:52:11;12.60;99.90
43627;DHT22;29217;52.586;13.442;2023-04-12T09:54:44;12.60;99.90
43627;DHT22;29217;52.586;13.442;2023-04-12T09:57:11;12.60;99.90
43627;DHT22;29217;52.586;13.442;2023-04-12T09:59:38;12.70;99.90
43627;DHT22;29217;52.586;13.442;2023-04-12T10:02:16;12.80;99.90
43627;DHT22;29217;52.586;13.442;2023-04-12T10:04:43;12.80;99.90
43627;DHT22;29217;52.586;13.442;2023-04-12T10:07:09;13.00;99.90
43627;DHT22;29217;52.586;13.442;2023-04-12T10:09:37;13.00;99.90
43627;DHT22;29217;52.586;13.442;2023-04-12T10:12:04;13.00;99.90
43627;DHT22;29217;52.586;13.442;2023-04-12T10:14:30;13.00;99.90
43627;DHT22;29217;52.586;13.442;2023-04-12T10:16:57;13.10;99.90
43627;DHT22;29217;52.586;13.442;2023-04-12T10:19:25;13.20;99.90
43627;DHT22;29217;52.586;13.442;2023-04-12T10:21:51;13.10;99.90
43627;DHT22;29217;52.586;13.442;2023-04-12T10:24:17;13.20;99.90
43627;DHT22;29217;52.586;13.442;2023-04-12T10:26:45;13.30;99.90
43627;DHT22;29217;52.586;13.442;2023-04-12T10:29:28;13.30;99.90
43627;DHT22;29217;52.586;13.442;2023-04-12T10:32:16;13.30;99.90
43627;DHT22;29217;52.586;13.442;2023-04-12T10:34:42;13.30;99.90
43627;DHT22;29217;52.586;13.442;2023-04-12T10:37:08;13.50;99.90
43627;DHT22;29217;52.586;13.442;2023-04-12T10:39:38;13.50;99.90
43627;DHT22;29217;52.586;13.442;2023-04-12T10:44:45;13.80;99.90
43627;DHT22;29217;52.586;13.442;2023-04-12T10:47:11;13.80;99.90
43627;DHT22;29217;52.586;13.442;2023-04-12T10:49:38;13.90;99.90
43627;DHT22;29217;52.586;13.442;2023-04-12T10:54:31;14.10;99.90
43627;DHT22;29217;52.586;13.442;2023-04-12T10:56:56;14.10;99.90
43627;DHT22;29217;52.586;13.442;2023-04-12T10:59:22;14.10;99.90
43627;DHT22;29217;52.586;13.442;2023-04-12T11:04:31;14.30;99.90
43627;DHT22;29217;52.586;13.442;2023-04-12T11:07:15;14.40;99.90
43627;DHT22;29217;52.586;13.442;2023-04-12T11:09:44;14.60;99.90
43627;DHT22;29217;52.586;13.442;2023-04-12T11:12:15;14.70;99.90
43627;DHT22;29217;52.586;13.442;2023-04-12T11:14:44;14.60;99.90
43627;DHT22;29217;52.586;13.442;2023-04-12T11:19:55;14.80;99.90
43627;DHT22;29217;52.586;13.442;2023-04-12T11:22:22;14.80;99.90
43627;DHT22;29217;52.586;13.442;2023-04-12T11:24:53;14.90;99.90
43627;DHT22;29217;52.586;13.442;2023-04-12T11:27:20;15.00;99.90
43627;DHT22;29217;52.586;13.442;2023-04-12T11:29:54;15.10;99.90
43627;DHT22;29217;52.586;13.442;2023-04-12T11:32:23;15.20;99.90
43627;DHT22;29217;52.586;13.442;2023-04-12T11:34:48;15.30;99.90
43627;DHT22;29217;52.586;13.442;2023-04-12T11:37:17;15.50;99.90
43627;DHT22;29217;52.586;13.442;2023-04-12T11:39:44;15.70;99.90
43627;DHT22;29217;52.586;13.442;2023-04-12T11:42:18;16.20;99.90
43627;DHT22;29217;52.586;13.442;2023-04-12T11:44:45;16.80;99.90
43627;DHT22;29217;52.586;13.442;2023-04-12T11:47:19;17.70;99.90
43627;DHT22;29217;52.586;13.442;2023-04-12T11:49:50;18.40;99.90
43627;DHT22;29217;52.586;13.442;2023-04-12T11:52:17;18.90;99.90
43627;DHT22;29217;52.586;13.442;2023-04-12T11:54:45;19.00;99.90
43627;DHT22;29217;52.586;13.442;2023-04-12T11:57:13;18.70;99.90
43627;DHT22;29217;52.586;13.442;2023-04-12T11:59:39;18.60;99.90
43627;DHT22;29217;52.586;13.442;2023-04-12T12:02:06;18.90;99.90
43627;DHT22;29217;52.586;13.442;2023-04-12T12:04:33;18.80;99.90
43627;DHT22;29217;52.586;13.442;2023-04-12T12:06:59;18.10;99.90
43627;DHT22;29217;52.586;13.442;2023-04-12T12:09:25;17.70;99.90
43627;DHT22;29217;52.586;13.442;2023-04-12T12:11:53;17.20;99.90
43627;DHT22;29217;52.586;13.442;2023-04-12T12:14:19;17.10;99.90
43627;DHT22;29217;52.586;13.442;2023-04-12T12:16:56;16.70;99.90
43627;DHT22;29217;52.586;13.442;2023-04-12T12:19:34;16.50;99.90
43627;DHT22;29217;52.586;13.442;2023-04-12T12:22:11;16.10;99.90
43627;DHT22;29217;52.586;13.442;2023-04-12T12:24:38;15.90;99.90
43627;DHT22;29217;52.586;13.442;2023-04-12T12:27:04;15.70;99.90
43627;DHT22;29217;52.586;13.442;2023-04-12T12:29:36;15.50;99.90
43627;DHT22;29217;52.586;13.442;2023-04-12T12:32:09;15.20;99.90
43627;DHT22;29217;52.586;13.442;2023-04-12T12:34:35;15.00;99.90
43627;DHT22;29217;52.586;13.442;2023-04-12T12:37:01;15.00;99.90
43627;DHT22;29217;52.586;13.442;2023-04-12T12:39:27;14.90;99.90
43627;DHT22;29217;52.586;13.442;2023-04-12T12:41:53;14.90;99.90
43627;DHT22;29217;52.586;13.442;2023-04-12T12:44:23;15.20;99.90
43627;DHT22;29217;52.586;13.442;2023-04-12T12:46:49;15.40;99.90
43627;DHT22;29217;52.586;13.442;2023-04-12T12:49:15;15.50;99.90
43627;DHT22;29217;52.586;13.442;2023-04-12T12:51:41;15.70;99.90
43627;DHT22;29217;52.586;13.442;2023-04-12T12:54:07;15.60;99.90
43627;DHT22;29217;52.586;13.442;2023-04-12T12:56:33;15.60;99.90
43627;DHT22;29217;52.586;13.442;2023-04-12T12:59:00;15.60;99.90
43627;DHT22;29217;52.586;13.442;2023-04-12T13:01:26;15.60;99.90
43627;DHT22;29217;52.586;13.442;2023-04-12T13:03:52;15.50;99.90
43627;DHT22;29217;52.586;13.442;2023-04-12T13:06:17;15.30;99.90
43627;DHT22;29217;52.586;13.442;2023-04-12T13:08:43;15.10;99.90
43627;DHT22;29217;52.586;13.442;2023-04-12T13:11:09;15.20;99.90
43627;DHT22;29217;52.586;13.442;2023-04-12T13:13:34;15.10;99.90
43627;DHT22;29217;52.586;13.442;2023-04-12T13:16:00;15.10;99.90
43627;DHT22;29217;52.586;13.442;2023-04-12T13:18:26;15.20;99.90
43627;DHT22;29217;52.586;13.442;2023-04-12T13:20:52;15.30;99.90
43627;DHT22;29217;52.586;13.442;2023-04-12T13:23:17;15.40;99.90
43627;DHT22;29217;52.586;13.442;2023-04-12T13:25:43;15.50;99.90
43627;DHT22;29217;52.586;13.442;2023-04-12T13:28:08;15.60;99.90
43627;DHT22;29217;52.586;13.442;2023-04-12T13:30:34;15.60;99.90
43627;DHT22;29217;52.586;13.442;2023-04-12T13:33:00;15.70;99.90
43627;DHT22;29217;52.586;13.442;2023-04-12T13:35:26;15.90;99.90
43627;DHT22;29217;52.586;13.442;2023-04-12T13:37:51;16.00;99.90
43627;DHT22;29217;52.586;13.442;2023-04-12T13:40:17;16.00;99.90
43627;DHT22;29217;52.586;13.442;2023-04-12T13:42:42;15.80;99.90
43627;DHT22;29217;52.586;13.442;2023-04-12T13:45:09;15.70;99.90
43627;DHT22;29217;52.586;13.442;2023-04-12T13:47:35;15.60;99.90
43627;DHT22;29217;52.586;13.442;2023-04-12T13:50:01;15.60;99.90
43627;DHT22;29217;52.586;13.442;2023-04-12T13:52:26;15.50;99.90
43627;DHT22;29217;52.586;13.442;2023-04-12T13:54:52;15.50;99.90
43627;DHT22;29217;52.586;13.442;2023-04-12T13:57:18;15.50;99.90
43627;DHT22;29217;52.586;13.442;2023-04-12T13:59:43;15.50;99.90
43627;DHT22;29217;52.586;13.442;2023-04-12T14:02:09;15.60;99.90
43627;DHT22;29217;52.586;13.442;2023-04-12T14:04:35;15.50;99.90
43627;DHT22;29217;52.586;13.442;2023-04-12T14:07:01;15.40;99.90
43627;DHT22;29217;52.586;13.442;2023-04-12T14:09:29;15.30;99.90
43627;DHT22;29217;52.586;13.442;2023-04-12T14:11:57;15.20;99.90
43627;DHT22;29217;52.586;13.442;2023-04-12T14:14:24;15.20;99.90
43627;DHT22;29217;52.586;13.442;2023-04-12T14:16:50;15.10;99.90
43627;DHT22;29217;52.586;13.442;2023-04-12T14:19:20;15.00;99.90
43627;DHT22;29217;52.586;13.442;2023-04-12T14:21:47;14.90;99.90
43627;DHT22;29217;52.586;13.442;2023-04-12T14:24:13;14.80;99.90
43627;DHT22;29217;52.586;13.442;2023-04-12T14:26:39;14.80;99.90
43627;DHT22;29217;52.586;13.442;2023-04-12T14:29:07;14.80;99.90
43627;DHT22;29217;52.586;13.442;2023-04-12T14:31:34;14.70;99.90
43627;DHT22;29217;52.586;13.442;2023-04-12T14:34:01;14.60;99.90
43627;DHT22;29217;52.586;13.442;2023-04-12T14:36:26;14.60;99.90
43627;DHT22;29217;52.586;13.442;2023-04-12T14:38:52;14.60;99.90
43627;DHT22;29217;52.586;13.442;2023-04-12T14:41:18;14.50;99.90
43627;DHT22;29217;52.586;13.442;2023-04-12T14:43:44;14.60;99.90
43627;DHT22;29217;52.586;13.442;2023-04-12T14:46:11;14.50;99.90
43627;DHT22;29217;52.586;13.442;2023-04-12T14:48:36;14.50;99.90
43627;DHT22;29217;52.586;13.442;2023-04-12T14:51:02;14.50;99.90
43627;DHT22;29217;52.586;13.442;2023-04-12T14:53:29;14.40;99.90
43627;DHT22;29217;52.586;13.442;2023-04-12T14:55:54;14.30;99.90
43627;DHT22;29217;52.586;13.442;2023-04-12T14:58:20;14.30;99.90
43627;DHT22;29217;52.586;13.442;2023-04-12T15:00:46;14.30;99.90
43627;DHT22;29217;52.586;13.442;2023-04-12T15:03:12;14.10;99.90
43627;DHT22;29217;52.586;13.442;2023-04-12T15:05:38;14.00;99.90
43627;DHT22;29217;52.586;13.442;2023-04-12T15:08:03;14.00;99.90
43627;DHT22;29217;52.586;13.442;2023-04-12T15:10:29;13.90;99.90
43627;DHT22;29217;52.586;13.442;2023-04-12T15:12:55;13.90;99.90
43627;DHT22;29217;52.586;13.442;2023-04-12T15:15:23;13.90;99.90
43627;DHT22;29217;52.586;13.442;2023-04-12T15:17:48;13.80;99.90
43627;DHT22;29217;52.586;13.442;2023-04-12T15:20:14;13.80;99.90
43627;DHT22;29217;52.586;13.442;2023-04-12T15:22:42;13.80;99.90
43627;DHT22;29217;52.586;13.442;2023-04-12T15:25:08;13.80;99.90
43627;DHT22;29217;52.586;13.442;2023-04-12T15:27:35;13.70;99.90
43627;DHT22;29217;52.586;13.442;2023-04-12T15:30:02;13.60;99.90
43627;DHT22;29217;52.586;13.442;2023-04-12T15:32:29;13.60;99.90
43627;DHT22;29217;52.586;13.442;2023-04-12T15:34:57;13.30;99.90
43627;DHT22;29217;52.586;13.442;2023-04-12T15:37:24;13.20;99.90
43627;DHT22;29217;52.586;13.442;2023-04-12T15:39:51;13.20;99.90
43627;DHT22;29217;52.586;13.442;2023-04-12T15:42:17;13.00;99.90